Time;durP1;ratioP1;P1;durP2;ratioP2;P2;SDS_P1;SDS_P2;PMS_P1;PMS_P2;Temp;Humidity;BMP_temperature;BMP_pressure;BME280_temperature;BME280_humidity;BME280_pressure;Samples;Min_cycle;Max_cycle;Signal;HPM_P1;HPM_P2
2022/03/15 00:01:17;;;;;;;57.85;21.33;;;;;;;5.93;100.00;102493.84;5012052;28;20067;-82
2022/03/15 00:03:43;;;;;;;49.38;20.52;;;;;;;5.84;100.00;102490.50;5024525;28;20129;-80
2022/03/15 00:06:08;;;;;;;51.17;20.02;;;;;;;5.67;100.00;102499.19;5023070;28;20362;-81
2022/03/15 00:08:34;;;;;;;48.45;22.08;;;;;;;5.76;100.00;102498.00;5030917;28;20029;-82
2022/03/15 00:11:05;;;;;;;48.17;20.95;;;;;;;5.82;100.00;102491.47;5008496;28;20052;-81
2022/03/15 00:13:31;;;;;;;58.55;21.40;;;;;;;5.79;100.00;102488.84;5033602;28;20033;-81
2022/03/15 00:16:00;;;;;;;45.75;20.38;;;;;;;5.72;100.00;102485.44;5029606;28;20057;-82
2022/03/15 00:18:30;;;;;;;45.58;20.85;;;;;;;5.64;100.00;102483.00;5014535;28;20169;-81
2022/03/15 00:20:57;;;;;;;57.03;20.75;;;;;;;5.65;100.00;102478.44;5031219;28;20053;-82
2022/03/15 00:23:23;;;;;;;58.72;21.85;;;;;;;5.74;100.00;102479.97;5012518;28;20419;-81
2022/03/15 00:25:49;;;;;;;52.17;22.88;;;;;;;5.69;100.00;102494.59;5034063;28;20160;-81
2022/03/15 00:28:16;;;;;;;53.65;23.23;;;;;;;5.75;100.00;102482.63;5017734;28;20091;-81
2022/03/15 00:30:42;;;;;;;51.78;22.65;;;;;;;5.75;100.00;102474.47;5019158;28;20046;-80
2022/03/15 00:33:08;;;;;;;56.42;23.13;;;;;;;5.88;100.00;102485.84;5027397;28;20503;-80
2022/03/15 00:35:35;;;;;;;54.78;20.70;;;;;;;5.55;100.00;102480.56;5022362;28;20040;-80
2022/03/15 00:38:02;;;;;;;51.65;22.75;;;;;;;5.48;100.00;102488.03;5026347;28;20113;-81
2022/03/15 00:40:27;;;;;;;50.05;21.02;;;;;;;5.45;100.00;102479.97;5011120;28;20366;-81
2022/03/15 00:42:53;;;;;;;39.88;19.63;;;;;;;5.48;100.00;102482.59;5006571;28;20065;-80
2022/03/15 00:45:23;;;;;;;47.28;21.25;;;;;;;5.36;100.00;102471.22;5024792;28;20029;-80
2022/03/15 00:47:49;;;;;;;49.38;21.48;;;;;;;5.45;100.00;102474.53;5019400;28;20062;-80
2022/03/15 00:50:15;;;;;;;44.88;21.85;;;;;;;5.37;100.00;102473.00;5021422;28;20049;-81
2022/03/15 00:52:40;;;;;;;54.95;21.75;;;;;;;5.42;100.00;102488.19;5019189;28;20501;-81
2022/03/15 00:55:06;;;;;;;59.63;21.13;;;;;;;5.42;100.00;102481.88;5018534;28;20038;-81
2022/03/15 00:57:33;;;;;;;51.42;21.55;;;;;;;5.31;100.00;102474.06;5020967;28;20112;-82
2022/03/15 00:59:58;;;;;;;44.20;20.48;;;;;;;5.27;100.00;102461.53;5009141;28;20030;-81
2022/03/15 01:02:24;;;;;;;36.33;20.67;;;;;;;5.50;100.00;102472.56;5000894;28;20048;-82
2022/03/15 01:04:50;;;;;;;59.03;21.17;;;;;;;5.27;100.00;102446.13;5027932;28;20365;-81
2022/03/15 01:07:16;;;;;;;41.65;20.05;;;;;;;5.24;100.00;102456.19;5025778;28;20030;-81
2022/03/15 01:09:42;;;;;;;41.95;20.20;;;;;;;5.28;100.00;102469.63;5011208;28;20037;-81
2022/03/15 01:12:08;;;;;;;53.70;20.45;;;;;;;5.30;100.00;102456.00;5014858;28;20045;-81
2022/03/15 01:14:35;;;;;;;52.47;20.50;;;;;;;5.36;100.00;102454.91;5025874;28;20034;-80
2022/03/15 01:17:02;;;;;;;42.95;19.08;;;;;;;5.38;100.00;102450.31;5027006;28;20025;-81
2022/03/15 01:19:28;;;;;;;39.28;18.80;;;;;;;5.50;100.00;102466.25;5010515;28;20569;-81
2022/03/15 01:21:56;;;;;;;41.78;21.35;;;;;;;5.44;100.00;102469.13;5010240;28;20057;-81
2022/03/15 01:24:21;;;;;;;42.75;19.88;;;;;;;5.33;100.00;102461.34;5011439;28;20083;-81
2022/03/15 01:26:47;;;;;;;47.70;20.70;;;;;;;5.32;100.00;102455.00;5023388;28;20041;-81
2022/03/15 01:29:13;;;;;;;45.00;19.35;;;;;;;5.33;100.00;102461.34;5028565;28;20025;-81
2022/03/15 01:31:39;;;;;;;40.08;19.98;;;;;;;5.35;100.00;102464.91;5031486;28;20187;-81
2022/03/15 01:34:04;;;;;;;39.92;19.75;;;;;;;5.38;100.00;102456.66;5037543;27;20041;-81
2022/03/15 01:36:30;;;;;;;47.67;21.42;;;;;;;5.21;100.00;102445.41;5044796;27;20036;-81
2022/03/15 01:38:57;;;;;;;50.33;22.23;;;;;;;5.15;100.00;102435.66;5029324;28;20038;-81
2022/03/15 01:41:23;;;;;;;50.67;22.08;;;;;;;5.25;100.00;102444.41;5023795;28;20026;-81
2022/03/15 01:43:49;;;;;;;70.95;24.48;;;;;;;5.35;100.00;102440.47;5023455;28;20037;-80
2022/03/15 01:46:16;;;;;;;53.10;22.40;;;;;;;5.24;100.00;102439.91;5016768;28;20070;-82
2022/03/15 01:48:41;;;;;;;52.78;21.92;;;;;;;5.16;100.00;102440.13;5026519;28;20033;-82
2022/03/15 01:51:09;;;;;;;66.70;25.15;;;;;;;5.27;100.00;102428.94;5026506;28;20042;-81
2022/03/15 01:53:37;;;;;;;62.25;22.75;;;;;;;5.40;100.00;102432.16;5021852;28;20041;-81
2022/03/15 01:56:02;;;;;;;83.75;21.38;;;;;;;5.24;100.00;102421.78;5024168;28;20090;-81
2022/03/15 01:58:28;;;;;;;54.10;18.88;;;;;;;5.32;100.00;102435.13;5008215;28;20276;-80
2022/03/15 02:00:54;;;;;;;51.15;20.08;;;;;;;5.48;100.00;102436.41;5029343;28;20112;-83
2022/03/15 02:03:19;;;;;;;45.40;19.40;;;;;;;5.61;100.00;102427.88;5009422;28;20018;-80
2022/03/15 02:05:45;;;;;;;49.85;19.60;;;;;;;5.58;100.00;102423.41;5013146;28;20037;-81
2022/03/15 02:08:14;;;;;;;42.63;17.42;;;;;;;5.56;100.00;102421.66;5033504;28;20133;-82
2022/03/15 02:10:40;;;;;;;40.28;17.48;;;;;;;5.34;100.00;102412.41;5009634;28;20056;-81
2022/03/15 02:13:05;;;;;;;35.03;17.08;;;;;;;5.32;100.00;102422.41;5007913;28;20030;-81
2022/03/15 02:15:31;;;;;;;37.97;17.63;;;;;;;5.21;100.00;102418.25;5025897;28;20079;-82
2022/03/15 02:17:57;;;;;;;39.05;17.17;;;;;;;5.10;100.00;102427.66;5019313;28;20072;-81
2022/03/15 02:20:22;;;;;;;40.78;18.08;;;;;;;5.04;100.00;102421.50;5026061;28;20108;-80
2022/03/15 02:22:48;;;;;;;40.42;17.98;;;;;;;5.24;100.00;102416.34;5024151;28;20124;-81
2022/03/15 02:25:13;;;;;;;38.30;17.23;;;;;;;5.27;100.00;102399.94;5006601;28;20121;-82
2022/03/15 02:27:39;;;;;;;38.20;16.60;;;;;;;5.44;100.00;102409.38;5008031;28;20034;-82
2022/03/15 02:30:06;;;;;;;34.58;16.40;;;;;;;5.70;100.00;102414.84;5028023;28;20059;-82
2022/03/15 02:32:34;;;;;;;44.00;17.48;;;;;;;5.58;100.00;102409.81;5088120;28;20571;-81
2022/03/15 02:35:00;;;;;;;39.30;16.85;;;;;;;5.69;100.00;102402.22;5098787;28;20099;-82
2022/03/15 02:37:25;;;;;;;41.05;16.48;;;;;;;5.67;100.00;102393.22;5108103;28;20435;-82
2022/03/15 02:39:51;;;;;;;34.75;15.60;;;;;;;5.70;100.00;102384.06;5094777;28;20031;-81
2022/03/15 02:42:17;;;;;;;27.70;15.00;;;;;;;5.72;100.00;102382.19;5112677;28;20455;-81
2022/03/15 02:44:43;;;;;;;34.70;16.05;;;;;;;5.70;100.00;102381.34;5090691;28;20036;-81
2022/03/15 02:47:09;;;;;;;31.05;14.50;;;;;;;5.38;100.00;102380.59;5113302;28;20055;-81
2022/03/15 02:49:34;;;;;;;35.97;15.20;;;;;;;5.38;100.00;102379.69;5093307;28;20030;-81
2022/03/15 02:52:00;;;;;;;31.70;14.90;;;;;;;5.45;100.00;102370.44;5106968;28;20095;-81
2022/03/15 02:54:25;;;;;;;30.75;15.18;;;;;;;5.56;100.00;102381.84;5103486;28;20072;-81
2022/03/15 02:56:51;;;;;;;36.15;14.80;;;;;;;5.51;100.00;102373.81;5099909;28;20024;-81
2022/03/15 02:59:17;;;;;;;29.98;15.18;;;;;;;5.69;100.00;102374.16;5092609;28;20023;-81
2022/03/15 03:01:48;;;;;;;29.17;15.30;;;;;;;5.75;100.00;102367.59;5114309;28;20106;-82
2022/03/15 03:04:14;;;;;;;35.55;14.63;;;;;;;5.81;100.00;102381.88;5103361;28;20069;-81
2022/03/15 03:06:41;;;;;;;33.63;15.10;;;;;;;5.84;100.00;102379.06;5104453;28;20035;-81
2022/03/15 03:09:06;;;;;;;36.05;14.90;;;;;;;5.66;100.00;102355.25;5119632;28;20028;-81
2022/03/15 03:11:32;;;;;;;34.38;14.52;;;;;;;5.77;100.00;102363.00;5108946;28;20040;-81
2022/03/15 03:13:58;;;;;;;32.65;14.73;;;;;;;5.66;100.00;102338.94;5101305;28;20028;-81
2022/03/15 03:16:25;;;;;;;30.77;13.60;;;;;;;5.73;100.00;102359.50;5100934;28;20123;-80
2022/03/15 03:18:52;;;;;;;36.85;13.98;;;;;;;5.79;100.00;102362.03;5092483;28;20040;-81
2022/03/15 03:21:18;;;;;;;37.60;14.18;;;;;;;5.86;100.00;102352.69;5106137;28;20371;-81
2022/03/15 03:23:43;;;;;;;33.97;14.85;;;;;;;5.84;100.00;102343.72;5102531;28;20074;-81
2022/03/15 03:26:09;;;;;;;30.52;14.35;;;;;;;5.70;100.00;102340.59;5103778;28;20031;-81
2022/03/15 03:28:38;;;;;;;35.13;14.13;;;;;;;5.65;100.00;102340.75;5109316;28;20031;-81
2022/03/15 03:31:05;;;;;;;29.77;14.85;;;;;;;5.47;100.00;102346.81;5080091;28;20041;-81
2022/03/15 03:33:31;;;;;;;35.35;15.07;;;;;;;5.43;100.00;102351.47;5011473;28;20032;-81
2022/03/15 03:35:57;;;;;;;30.15;14.25;;;;;;;5.32;100.00;102335.50;5019680;28;20057;-81
2022/03/15 03:38:22;;;;;;;28.35;14.48;;;;;;;5.48;100.00;102337.72;5030527;28;20026;-81
2022/03/15 03:40:48;;;;;;;31.50;15.98;;;;;;;5.36;100.00;102330.84;5022431;28;20038;-81
2022/03/15 03:43:13;;;;;;;37.17;15.30;;;;;;;5.41;100.00;102330.72;5028318;28;20492;-81
2022/03/15 03:45:39;;;;;;;33.45;15.13;;;;;;;5.48;100.00;102324.16;5018087;28;20045;-81
2022/03/15 03:48:06;;;;;;;36.60;15.18;;;;;;;5.38;100.00;102330.81;5018787;28;20097;-81
2022/03/15 03:50:32;;;;;;;32.65;14.77;;;;;;;5.46;100.00;102336.88;5027959;28;20033;-80
2022/03/15 03:52:58;;;;;;;32.13;14.70;;;;;;;5.34;100.00;102336.38;5025932;28;20054;-82
2022/03/15 03:55:23;;;;;;;32.67;15.00;;;;;;;5.44;100.00;102327.91;5013678;28;20030;-81
2022/03/15 03:57:49;;;;;;;32.63;15.77;;;;;;;5.35;100.00;102315.53;5043513;27;20030;-81
2022/03/15 04:00:16;;;;;;;36.60;15.82;;;;;;;5.46;100.00;102326.91;5016918;28;20083;-81
2022/03/15 04:02:42;;;;;;;42.45;15.93;;;;;;;5.38;100.00;102318.13;5028325;28;20044;-81
2022/03/15 04:05:08;;;;;;;44.45;18.17;;;;;;;5.26;100.00;102300.44;5004434;28;20062;-81
2022/03/15 04:07:34;;;;;;;45.63;16.60;;;;;;;5.29;100.00;102323.88;5018428;28;20034;-80
2022/03/15 04:10:00;;;;;;;39.90;16.38;;;;;;;5.23;100.00;102324.97;5022794;28;20038;-80
2022/03/15 04:12:25;;;;;;;43.22;16.17;;;;;;;5.25;100.00;102328.53;5024994;28;20041;-81
2022/03/15 04:14:53;;;;;;;36.20;16.55;;;;;;;5.24;100.00;102334.00;5021762;28;20608;-81
2022/03/15 04:17:18;;;;;;;33.55;15.38;;;;;;;5.19;100.00;102336.84;5020177;28;20034;-80
2022/03/15 04:19:44;;;;;;;42.65;16.60;;;;;;;5.19;100.00;102327.84;5018357;28;20477;-80
2022/03/15 04:22:10;;;;;;;39.00;16.13;;;;;;;5.34;100.00;102339.09;5022929;28;20025;-79
2022/03/15 04:24:35;;;;;;;39.63;15.85;;;;;;;5.37;100.00;102323.63;5019497;28;20035;-80
2022/03/15 04:27:01;;;;;;;33.80;14.20;;;;;;;5.42;100.00;102317.09;5022403;28;20134;-79
2022/03/15 04:29:28;;;;;;;37.55;14.90;;;;;;;5.47;100.00;102330.50;5007044;28;20029;-80
2022/03/15 04:31:54;;;;;;;46.78;14.88;;;;;;;5.40;100.00;102337.09;5022149;28;20045;-80
2022/03/15 04:34:19;;;;;;;34.30;15.02;;;;;;;5.46;100.00;102336.88;5009834;28;20049;-80
2022/03/15 04:36:45;;;;;;;27.00;13.98;;;;;;;5.34;100.00;102335.47;5022951;28;20037;-81
2022/03/15 04:39:11;;;;;;;29.65;14.30;;;;;;;5.31;100.00;102333.75;5028550;28;20053;-81
2022/03/15 04:41:38;;;;;;;32.78;13.45;;;;;;;5.40;100.00;102337.97;5024862;28;20162;-80
2022/03/15 04:44:04;;;;;;;30.15;13.05;;;;;;;5.34;100.00;102330.94;5021633;28;20041;-80
2022/03/15 04:46:30;;;;;;;28.85;13.07;;;;;;;5.34;100.00;102321.88;5008653;28;20033;-81
2022/03/15 04:48:56;;;;;;;36.35;14.45;;;;;;;5.34;100.00;102332.75;5016416;28;20036;-81
2022/03/15 04:51:23;;;;;;;34.58;14.13;;;;;;;5.28;100.00;102336.56;5022440;28;20030;-81
2022/03/15 04:53:49;;;;;;;31.05;12.77;;;;;;;5.32;100.00;102326.50;5025990;28;20053;-81
2022/03/15 04:56:15;;;;;;;36.33;13.32;;;;;;;5.25;100.00;102319.50;5025896;28;20050;-81
2022/03/15 04:58:40;;;;;;;26.98;12.65;;;;;;;5.20;100.00;102319.66;5021854;28;20046;-81
2022/03/15 05:01:06;;;;;;;32.63;13.00;;;;;;;5.30;100.00;102318.38;5012154;28;20181;-82
2022/03/15 05:03:33;;;;;;;25.05;12.82;;;;;;;5.23;100.00;102313.19;5005427;28;20037;-81
2022/03/15 05:05:59;;;;;;;34.85;14.07;;;;;;;5.26;100.00;102311.31;5013879;28;20025;-81
2022/03/15 05:08:25;;;;;;;32.65;12.05;;;;;;;5.22;100.00;102312.31;5008772;28;20545;-81
2022/03/15 05:11:06;;;;;;;33.30;13.52;;;;;;;5.22;100.00;102306.03;5019389;28;20037;-81
2022/03/15 05:13:40;;;;;;;25.65;11.75;;;;;;;5.26;100.00;102299.53;5025128;28;20030;-79
2022/03/15 05:16:08;;;;;;;24.90;12.95;;;;;;;5.30;100.00;102306.66;5020064;28;20026;-80
2022/03/15 05:18:34;;;;;;;35.17;13.00;;;;;;;5.18;100.00;102291.63;5022036;28;20048;-81
2022/03/15 05:21:00;;;;;;;26.08;12.18;;;;;;;5.19;100.00;102301.56;5023454;28;20025;-81
2022/03/15 05:23:26;;;;;;;30.83;12.40;;;;;;;5.15;100.00;102308.94;5019350;28;20034;-82
2022/03/15 05:25:51;;;;;;;31.65;12.80;;;;;;;5.14;100.00;102295.41;5026372;28;20334;-80
2022/03/15 05:28:17;;;;;;;23.95;12.43;;;;;;;5.20;100.00;102303.34;5032940;28;20033;-80
2022/03/15 05:30:43;;;;;;;24.85;12.52;;;;;;;5.19;100.00;102308.84;5019323;28;20041;-80
2022/03/15 05:33:09;;;;;;;37.85;12.80;;;;;;;5.24;100.00;102306.84;5026330;28;20030;-79
2022/03/15 05:35:35;;;;;;;31.58;12.43;;;;;;;5.09;100.00;102302.81;5011293;28;20063;-80
2022/03/15 05:38:00;;;;;;;24.48;11.68;;;;;;;5.14;100.00;102306.25;5031075;28;20087;-80
2022/03/15 05:40:26;;;;;;;31.73;13.07;;;;;;;5.13;100.00;102304.47;5026711;28;20030;-82
2022/03/15 05:42:51;;;;;;;28.60;11.82;;;;;;;5.14;100.00;102289.97;5003348;28;20064;-80
2022/03/15 05:45:16;;;;;;;27.00;11.90;;;;;;;5.12;100.00;102298.16;5025978;28;20028;-80
2022/03/15 05:47:42;;;;;;;29.42;12.40;;;;;;;5.08;100.00;102288.38;5020841;28;20050;-81
2022/03/15 05:50:08;;;;;;;32.92;12.30;;;;;;;5.02;100.00;102295.78;5019221;28;20560;-81
2022/03/15 05:52:34;;;;;;;23.33;11.38;;;;;;;5.04;100.00;102286.66;5030381;28;20037;-80
2022/03/15 05:54:59;;;;;;;33.00;11.07;;;;;;;5.03;100.00;102290.31;5018262;28;20061;-80
2022/03/15 05:57:24;;;;;;;36.88;12.95;;;;;;;5.03;100.00;102290.31;5011153;28;20025;-81
2022/03/15 05:59:50;;;;;;;27.75;12.15;;;;;;;4.93;100.00;102292.44;5042372;27;20049;-81
2022/03/15 06:02:16;;;;;;;30.45;12.05;;;;;;;5.05;100.00;102295.69;5017403;28;20052;-83
2022/03/15 06:04:42;;;;;;;21.65;11.32;;;;;;;5.05;100.00;102273.97;5012212;28;20109;-82
2022/03/15 06:07:07;;;;;;;30.65;11.63;;;;;;;4.84;100.00;102273.75;5030988;28;20380;-81
2022/03/15 06:09:33;;;;;;;24.80;10.70;;;;;;;5.16;100.00;102285.38;5016147;28;20030;-81
2022/03/15 06:11:58;;;;;;;23.65;10.38;;;;;;;5.21;100.00;102282.50;5024921;28;20537;-81
2022/03/15 06:14:24;;;;;;;26.90;11.75;;;;;;;5.30;100.00;102285.81;5020912;28;20026;-82
2022/03/15 06:16:50;;;;;;;28.70;11.23;;;;;;;5.40;100.00;102274.63;5021886;28;20453;-81
2022/03/15 06:19:17;;;;;;;24.85;11.30;;;;;;;5.43;100.00;102282.69;5024233;28;20041;-81
2022/03/15 06:21:44;;;;;;;30.05;11.80;;;;;;;5.43;100.00;102275.41;5009656;28;20067;-80
2022/03/15 06:24:10;;;;;;;24.98;10.90;;;;;;;5.53;100.00;102284.13;5022793;28;20038;-81
2022/03/15 06:26:38;;;;;;;28.95;11.45;;;;;;;5.57;100.00;102284.91;5020425;28;20044;-82
2022/03/15 06:29:04;;;;;;;27.27;11.00;;;;;;;5.58;100.00;102278.53;5028049;28;20021;-79
2022/03/15 06:31:34;;;;;;;27.85;10.90;;;;;;;5.66;100.00;102279.16;5030289;27;20048;-83
2022/03/15 06:34:00;;;;;;;33.03;10.38;;;;;;;5.68;100.00;102274.53;5010684;28;20038;-82
2022/03/15 06:36:25;;;;;;;33.42;10.45;;;;;;;5.64;100.00;102271.06;5035285;28;20032;-80
2022/03/15 06:38:52;;;;;;;29.90;10.98;;;;;;;5.62;100.00;102272.03;5015426;28;20034;-81
2022/03/15 06:41:17;;;;;;;30.63;12.35;;;;;;;5.57;100.00;102277.63;5025441;28;20078;-81
2022/03/15 06:43:43;;;;;;;19.77;11.07;;;;;;;5.65;100.00;102274.66;5026362;28;20029;-81
2022/03/15 06:46:09;;;;;;;24.27;10.90;;;;;;;5.75;100.00;102277.94;5026795;28;20041;-81
2022/03/15 06:48:35;;;;;;;26.52;10.65;;;;;;;5.81;100.00;102262.28;5023218;28;20037;-82
2022/03/15 06:51:02;;;;;;;32.17;10.43;;;;;;;5.78;100.00;102273.25;5015793;28;20501;-80
2022/03/15 06:53:28;;;;;;;25.63;9.95;;;;;;;5.83;100.00;102264.94;5007309;28;20033;-81
2022/03/15 06:55:54;;;;;;;33.85;10.52;;;;;;;5.94;100.00;102259.13;5020259;28;20066;-81
2022/03/15 06:58:19;;;;;;;39.45;10.05;;;;;;;5.92;100.00;102271.88;5034247;27;20030;-81
2022/03/15 07:00:47;;;;;;;32.55;9.90;;;;;;;5.95;100.00;102258.16;5024956;28;20032;-81
2022/03/15 07:03:13;;;;;;;28.90;10.13;;;;;;;5.97;100.00;102256.31;5025128;28;20030;-81
2022/03/15 07:05:39;;;;;;;32.20;11.38;;;;;;;5.80;100.00;102227.00;5009239;28;20026;-81
2022/03/15 07:08:05;;;;;;;27.60;11.63;;;;;;;6.00;100.00;102253.47;5031059;28;20028;-80
2022/03/15 07:10:31;;;;;;;33.60;11.57;;;;;;;6.01;100.00;102247.97;5025530;28;20441;-80
2022/03/15 07:12:56;;;;;;;35.70;11.73;;;;;;;6.03;100.00;102246.13;5033346;27;20988;-81
2022/03/15 07:15:21;;;;;;;33.30;12.10;;;;;;;6.05;100.00;102251.47;5014965;28;20033;-82
2022/03/15 07:17:51;;;;;;;30.23;11.13;;;;;;;6.11;100.00;102255.81;5014820;28;20517;-81
2022/03/15 07:20:17;;;;;;;40.40;10.95;;;;;;;6.13;100.00;102243.03;5028447;28;20044;-81
2022/03/15 07:22:43;;;;;;;31.70;11.98;;;;;;;6.19;100.00;102242.81;5019725;27;20033;-81
2022/03/15 07:25:09;;;;;;;28.23;10.98;;;;;;;6.21;100.00;102249.06;5009277;28;20076;-81
2022/03/15 07:27:37;;;;;;;22.52;9.55;;;;;;;6.23;100.00;102242.63;5016112;28;20199;-79
2022/03/15 07:30:04;;;;;;;23.35;9.88;;;;;;;6.06;100.00;102231.50;5007169;28;20547;-81
2022/03/15 07:32:29;;;;;;;29.42;9.70;;;;;;;6.30;100.00;102234.25;5040591;28;20033;-80
2022/03/15 07:34:55;;;;;;;27.20;8.80;;;;;;;6.40;100.00;102236.53;5028416;28;20044;-80
2022/03/15 07:37:21;;;;;;;22.85;9.18;;;;;;;6.38;100.00;102224.81;5026239;28;20041;-81
2022/03/15 07:39:47;;;;;;;27.67;9.00;;;;;;;6.47;100.00;102233.56;5010137;28;20037;-80
2022/03/15 07:42:13;;;;;;;32.03;10.20;;;;;;;6.47;100.00;102239.00;5021974;28;20501;-81
2022/03/15 07:44:42;;;;;;;23.38;9.00;;;;;;;6.53;100.00;102241.50;5012932;28;20042;-81
2022/03/15 07:47:10;;;;;;;22.25;8.93;;;;;;;6.61;100.00;102232.06;5024839;28;20086;-80
2022/03/15 07:49:36;;;;;;;31.48;11.02;;;;;;;6.68;100.00;102238.16;5023321;28;20069;-81
2022/03/15 07:52:03;;;;;;;27.48;8.75;;;;;;;6.74;100.00;102234.28;5028000;28;20022;-81
2022/03/15 07:54:28;;;;;;;24.58;8.80;;;;;;;6.66;100.00;102217.38;5018994;28;20162;-79
2022/03/15 07:56:54;;;;;;;20.55;8.18;;;;;;;6.77;100.00;102236.88;5023775;28;20067;-81
2022/03/15 07:59:19;;;;;;;29.85;8.93;;;;;;;6.91;100.00;102237.19;5023301;28;20035;-81
2022/03/15 08:01:45;;;;;;;23.17;8.30;;;;;;;6.93;100.00;102234.41;5003916;28;20041;-79
2022/03/15 08:04:10;;;;;;;17.95;7.45;;;;;;;7.11;100.00;102233.63;5023758;28;20037;-79
2022/03/15 08:06:36;;;;;;;22.00;8.35;;;;;;;7.03;100.00;102229.47;5022013;28;20112;-78
2022/03/15 08:09:05;;;;;;;18.17;7.60;;;;;;;7.12;100.00;102226.38;5020171;28;20053;-79
2022/03/15 08:11:30;;;;;;;170.77;15.57;;;;;;;7.16;100.00;102220.69;5022311;28;20057;-80
2022/03/15 08:13:57;;;;;;;32.58;8.00;;;;;;;7.31;100.00;102218.28;5009880;28;20037;-80
2022/03/15 08:16:22;;;;;;;88.90;13.07;;;;;;;7.21;100.00;102215.06;5009216;28;20405;-81
2022/03/15 08:18:49;;;;;;;42.45;9.20;;;;;;;7.31;100.00;102211.00;5007134;28;20037;-81
2022/03/15 08:21:15;;;;;;;115.95;14.07;;;;;;;7.38;100.00;102217.06;5023176;28;20055;-82
2022/03/15 08:23:40;;;;;;;120.93;14.20;;;;;;;7.40;100.00;102209.72;5021032;28;20026;-78
2022/03/15 08:26:06;;;;;;;48.47;10.00;;;;;;;7.55;100.00;102214.47;5003929;28;20089;-79
2022/03/15 08:28:32;;;;;;;50.78;9.63;;;;;;;7.54;100.00;102203.63;5027741;28;20434;-81
2022/03/15 08:30:59;;;;;;;33.40;8.63;;;;;;;7.60;100.00;102207.94;5019887;28;20061;-79
2022/03/15 08:33:26;;;;;;;145.65;15.02;;;;;;;7.55;100.00;102206.28;5024989;28;20041;-79
2022/03/15 08:35:52;;;;;;;170.80;16.35;;;;;;;7.62;100.00;102203.31;5025064;28;20438;-79
2022/03/15 08:38:18;;;;;;;107.47;12.70;;;;;;;7.65;100.00;102200.44;5028941;28;20073;-79
2022/03/15 08:40:44;;;;;;;24.70;7.50;;;;;;;7.66;100.00;102197.66;5021571;28;20026;-79
2022/03/15 08:43:09;;;;;;;25.38;6.88;;;;;;;7.76;100.00;102199.97;5013808;28;20068;-79
2022/03/15 08:45:36;;;;;;;19.80;6.85;;;;;;;7.70;100.00;102196.53;5014373;28;20112;-78
2022/03/15 08:48:01;;;;;;;26.40;7.85;;;;;;;7.70;100.00;102195.66;5021323;28;20120;-79
2022/03/15 08:50:27;;;;;;;24.50;7.65;;;;;;;7.74;100.00;102191.84;5015645;28;20466;-78
2022/03/15 08:52:55;;;;;;;29.85;8.20;;;;;;;7.77;100.00;102191.69;5026995;28;20070;-78
2022/03/15 08:55:21;;;;;;;17.38;7.20;;;;;;;7.88;100.00;102194.81;5013457;28;20037;-78
2022/03/15 08:57:49;;;;;;;26.08;7.20;;;;;;;7.76;100.00;102187.22;5003304;28;20022;-78
2022/03/15 09:00:14;;;;;;;19.23;7.15;;;;;;;7.83;100.00;102185.09;5030224;28;20029;-79
2022/03/15 09:02:40;;;;;;;20.25;7.72;;;;;;;7.84;100.00;102198.66;5023715;28;20121;-78
2022/03/15 09:05:06;;;;;;;27.48;8.00;;;;;;;7.94;100.00;102182.75;5027490;28;20041;-78
2022/03/15 09:07:31;;;;;;;26.40;7.07;;;;;;;7.98;100.00;102187.09;5023026;28;21488;-79
2022/03/15 09:09:57;;;;;;;23.67;7.50;;;;;;;7.94;100.00;102170.97;5008673;28;20042;-78
2022/03/15 09:12:23;;;;;;;19.40;7.78;;;;;;;7.97;100.00;102187.16;5027042;28;20083;-78
2022/03/15 09:14:48;;;;;;;18.52;6.93;;;;;;;7.95;100.00;102183.63;5025685;28;20042;-78
2022/03/15 09:17:15;;;;;;;21.10;7.00;;;;;;;8.05;100.00;102182.22;5027483;28;20041;-78
2022/03/15 09:19:40;;;;;;;20.20;7.75;;;;;;;8.09;100.00;102183.88;5014929;28;20060;-78
2022/03/15 09:22:07;;;;;;;25.45;8.10;;;;;;;8.12;100.00;102177.38;5031476;28;20123;-78
2022/03/15 09:24:35;;;;;;;20.65;7.22;;;;;;;8.10;100.00;102172.00;5019643;28;20496;-79
2022/03/15 09:27:01;;;;;;;23.00;8.23;;;;;;;8.22;100.00;102167.81;5024210;28;20715;-79
2022/03/15 09:29:27;;;;;;;24.73;8.15;;;;;;;8.28;100.00;102171.13;5024521;28;20041;-78
2022/03/15 09:31:53;;;;;;;13.02;6.78;;;;;;;8.23;100.00;102170.47;5018683;28;20042;-78
2022/03/15 09:34:21;;;;;;;21.83;8.88;;;;;;;8.33;100.00;102170.91;5006065;28;20428;-78
2022/03/15 09:36:46;;;;;;;20.15;7.88;;;;;;;8.37;100.00;102166.19;5005964;28;20033;-78
2022/03/15 09:39:12;;;;;;;18.13;7.85;;;;;;;8.33;100.00;102161.81;5024635;28;20109;-79
2022/03/15 09:41:39;;;;;;;19.10;7.45;;;;;;;8.36;100.00;102165.31;5025594;28;20555;-80
2022/03/15 09:44:10;;;;;;;20.63;7.55;;;;;;;8.37;100.00;102153.41;5027024;28;20074;-79
2022/03/15 09:47:00;;;;;;;19.75;7.80;;;;;;;8.43;100.00;102158.59;5021999;28;20026;-79
2022/03/15 09:49:27;;;;;;;20.20;7.97;;;;;;;8.43;100.00;102150.41;5019412;28;20038;-79
2022/03/15 09:51:55;;;;;;;23.60;7.80;;;;;;;8.39;100.00;102148.75;5011802;28;20038;-79
2022/03/15 09:54:22;;;;;;;19.50;6.93;;;;;;;8.51;100.00;102154.59;5009135;28;20034;-81
2022/03/15 09:56:49;;;;;;;24.75;7.20;;;;;;;8.54;100.00;102141.69;5034537;28;20091;-81
2022/03/15 09:59:20;;;;;;;18.70;6.97;;;;;;;8.59;100.00;102150.53;5005618;28;20082;-81
2022/03/15 10:01:50;;;;;;;19.05;7.15;;;;;;;8.57;100.00;102159.75;5035268;28;20069;-82
2022/03/15 10:04:17;;;;;;;17.85;6.70;;;;;;;8.60;100.00;102146.84;5028197;28;20037;-80
2022/03/15 10:06:43;;;;;;;18.90;7.13;;;;;;;8.63;100.00;102138.50;5029734;28;20050;-82
2022/03/15 10:09:09;;;;;;;14.43;7.00;;;;;;;8.73;100.00;102143.50;5023707;28;20145;-80
2022/03/15 10:11:36;;;;;;;21.25;7.30;;;;;;;8.68;100.00;102145.59;5027525;28;20034;-82
2022/03/15 10:14:04;;;;;;;19.48;7.10;;;;;;;8.77;100.00;102139.63;5022518;28;20034;-82
2022/03/15 10:16:41;;;;;;;24.20;8.43;;;;;;;8.67;100.00;102119.22;5028361;28;20033;-81
2022/03/15 10:19:11;;;;;;;15.57;7.88;;;;;;;8.94;100.00;102138.78;5023548;28;20083;-81
2022/03/15 10:21:56;;;;;;;27.70;6.22;;;;;;;8.97;100.00;102144.09;5036842;28;20033;-81
2022/03/15 10:24:24;;;;;;;12.48;6.57;;;;;;;8.95;100.00;102144.19;5023744;28;20442;-82
2022/03/15 10:26:52;;;;;;;24.20;6.78;;;;;;;8.89;100.00;102114.44;5030625;28;20038;-82
2022/03/15 10:29:19;;;;;;;19.40;6.25;;;;;;;9.00;100.00;102119.34;5027426;28;20045;-82
2022/03/15 10:31:46;;;;;;;23.42;6.65;;;;;;;9.04;100.00;102122.81;5013534;28;20050;-82
2022/03/15 10:34:13;;;;;;;16.50;5.95;;;;;;;9.08;100.00;102121.66;5028759;27;20034;-79
2022/03/15 10:36:43;;;;;;;18.02;6.38;;;;;;;9.20;100.00;102131.97;5023834;28;20037;-81
2022/03/15 10:39:12;;;;;;;15.40;6.35;;;;;;;9.22;100.00;102119.09;5023905;28;20034;-81
2022/03/15 10:41:42;;;;;;;16.85;6.32;;;;;;;9.30;100.00;102124.16;5021303;28;20057;-80
2022/03/15 10:44:24;;;;;;;17.73;6.22;;;;;;;9.30;100.00;102115.97;5027275;28;20057;-80
2022/03/15 10:46:58;;;;;;;;;;;;;;;9.40;100.00;102116.38;5013671;28;20034;-80
2022/03/15 10:49:24;;;;;;;23.92;6.50;;;;;;;9.42;100.00;102109.81;5020535;28;20361;-80
2022/03/15 10:51:49;;;;;;;24.73;7.13;;;;;;;9.45;100.00;102101.47;5013790;28;20034;-82
2022/03/15 10:54:15;;;;;;;15.25;6.63;;;;;;;9.46;100.00;102113.28;5005502;28;20045;-81
2022/03/15 10:56:50;;;;;;;14.55;6.07;;;;;;;9.49;100.00;102113.97;5028348;28;20085;-80
2022/03/15 10:59:16;;;;;;;19.15;7.05;;;;;;;9.55;100.00;102107.31;5015830;28;20477;-80
2022/03/15 11:01:42;;;;;;;21.42;6.03;;;;;;;9.54;100.00;102097.34;5023235;28;20026;-80
2022/03/15 11:04:09;;;;;;;12.50;5.82;;;;;;;9.59;100.00;102097.97;5026712;28;20507;-81
2022/03/15 11:06:40;;;;;;;13.02;5.97;;;;;;;9.72;100.00;102087.22;5030104;28;20040;-81
2022/03/15 11:09:17;;;;;;;18.63;6.30;;;;;;;9.73;100.00;102091.75;5010237;28;20033;-80